sensor_id;sensor_type;location;lat;lon;timestamp;pressure;altitude;pressure_sealevel;temperature;humidity
70916;BME280;58557;50.982;-3.222;2023-01-31T00:00:05;102207.01;;;6.43;57.02
70916;BME280;58557;50.982;-3.222;2023-01-31T00:02:30;102208.62;;;6.82;56.35
70916;BME280;58557;50.982;-3.222;2023-01-31T00:04:55;102213.46;;;7.28;55.51
70916;BME280;58557;50.982;-3.222;2023-01-31T00:07:20;102218.73;;;6.34;56.73
70916;BME280;58557;50.982;-3.222;2023-01-31T00:09:45;102213.56;;;6.70;56.75
70916;BME280;58557;50.982;-3.222;2023-01-31T00:12:11;102207.46;;;6.63;56.66
70916;BME280;58557;50.982;-3.222;2023-01-31T00:14:36;102203.68;;;6.87;56.13
70916;BME280;58557;50.982;-3.222;2023-01-31T00:17:02;102202.20;;;5.94;59.33
70916;BME280;58557;50.982;-3.222;2023-01-31T00:19:28;102195.29;;;6.94;55.95
70916;BME280;58557;50.982;-3.222;2023-01-31T00:21:53;102194.57;;;5.80;57.68
70916;BME280;58557;50.982;-3.222;2023-01-31T00:24:19;102197.08;;;5.41;58.45
70916;BME280;58557;50.982;-3.222;2023-01-31T00:26:45;102195.12;;;5.83;58.97
70916;BME280;58557;50.982;-3.222;2023-01-31T00:29:10;102188.62;;;6.21;57.47
70916;BME280;58557;50.982;-3.222;2023-01-31T00:31:35;102192.78;;;4.47;60.06
70916;BME280;58557;50.982;-3.222;2023-01-31T00:34:01;102192.79;;;6.35;57.16
70916;BME280;58557;50.982;-3.222;2023-01-31T00:36:27;102188.90;;;5.31;59.64
70916;BME280;58557;50.982;-3.222;2023-01-31T00:38:53;102187.74;;;5.58;59.50
70916;BME280;58557;50.982;-3.222;2023-01-31T00:41:16;102178.88;;;6.01;60.02
70916;BME280;58557;50.982;-3.222;2023-01-31T00:43:41;102175.31;;;5.56;60.40
70916;BME280;58557;50.982;-3.222;2023-01-31T00:46:07;102180.77;;;4.35;66.15
70916;BME280;58557;50.982;-3.222;2023-01-31T00:48:33;102178.91;;;5.21;62.65
70916;BME280;58557;50.982;-3.222;2023-01-31T00:50:58;102179.28;;;5.57;61.80
70916;BME280;58557;50.982;-3.222;2023-01-31T00:53:24;102172.59;;;4.85;63.40
70916;BME280;58557;50.982;-3.222;2023-01-31T00:55:49;102163.99;;;4.67;64.40
70916;BME280;58557;50.982;-3.222;2023-01-31T00:58:15;102163.33;;;4.98;64.42
70916;BME280;58557;50.982;-3.222;2023-01-31T01:00:40;102158.56;;;4.37;65.27
70916;BME280;58557;50.982;-3.222;2023-01-31T01:03:05;102163.91;;;4.71;66.26
70916;BME280;58557;50.982;-3.222;2023-01-31T01:05:30;102164.34;;;3.54;68.79
70916;BME280;58557;50.982;-3.222;2023-01-31T01:07:56;102158.76;;;5.29;65.65
70916;BME280;58557;50.982;-3.222;2023-01-31T01:10:21;102152.28;;;4.38;66.64
70916;BME280;58557;50.982;-3.222;2023-01-31T01:12:47;102146.59;;;5.43;63.83
70916;BME280;58557;50.982;-3.222;2023-01-31T01:15:12;102142.84;;;5.06;63.31
70916;BME280;58557;50.982;-3.222;2023-01-31T01:17:38;102138.29;;;4.52;66.39
70916;BME280;58557;50.982;-3.222;2023-01-31T01:20:04;102135.48;;;4.37;66.16
70916;BME280;58557;50.982;-3.222;2023-01-31T01:22:29;102143.33;;;4.17;67.25
70916;BME280;58557;50.982;-3.222;2023-01-31T01:24:54;102138.67;;;4.60;66.98
70916;BME280;58557;50.982;-3.222;2023-01-31T01:27:19;102138.08;;;6.19;61.43
70916;BME280;58557;50.982;-3.222;2023-01-31T01:29:44;102137.95;;;5.76;61.92
70916;BME280;58557;50.982;-3.222;2023-01-31T01:32:09;102137.49;;;5.75;63.05
70916;BME280;58557;50.982;-3.222;2023-01-31T01:34:35;102135.18;;;5.41;61.04
70916;BME280;58557;50.982;-3.222;2023-01-31T01:37:01;102131.56;;;6.13;60.51
70916;BME280;58557;50.982;-3.222;2023-01-31T01:39:26;102129.89;;;5.86;60.27
70916;BME280;58557;50.982;-3.222;2023-01-31T01:41:51;102128.76;;;6.65;59.34
70916;BME280;58557;50.982;-3.222;2023-01-31T01:46:43;102116.88;;;7.27;55.83
70916;BME280;58557;50.982;-3.222;2023-01-31T01:49:13;102117.80;;;7.38;55.73
70916;BME280;58557;50.982;-3.222;2023-01-31T01:51:33;102122.57;;;7.52;54.45
70916;BME280;58557;50.982;-3.222;2023-01-31T01:54:00;102117.23;;;7.09;56.02
70916;BME280;58557;50.982;-3.222;2023-01-31T01:56:25;102121.74;;;7.67;55.76
70916;BME280;58557;50.982;-3.222;2023-01-31T01:58:52;102107.77;;;6.96;56.55
70916;BME280;58557;50.982;-3.222;2023-01-31T02:01:13;102112.01;;;7.46;55.32
70916;BME280;58557;50.982;-3.222;2023-01-31T02:03:39;102109.26;;;7.03;56.67
70916;BME280;58557;50.982;-3.222;2023-01-31T02:06:05;102106.49;;;6.49;59.69
70916;BME280;58557;50.982;-3.222;2023-01-31T02:08:31;102104.76;;;6.38;60.28
70916;BME280;58557;50.982;-3.222;2023-01-31T02:10:56;102100.56;;;6.37;60.57
70916;BME280;58557;50.982;-3.222;2023-01-31T02:13:20;102100.32;;;5.86;61.28
70916;BME280;58557;50.982;-3.222;2023-01-31T02:15:44;102103.50;;;5.33;63.95
70916;BME280;58557;50.982;-3.222;2023-01-31T02:18:10;102101.17;;;4.24;67.36
70916;BME280;58557;50.982;-3.222;2023-01-31T02:20:53;102098.22;;;4.78;68.24
70916;BME280;58557;50.982;-3.222;2023-01-31T02:23:18;102094.04;;;4.84;69.21
70916;BME280;58557;50.982;-3.222;2023-01-31T02:30:33;102103.89;;;3.81;73.55
70916;BME280;58557;50.982;-3.222;2023-01-31T02:32:50;102100.54;;;4.91;69.12
70916;BME280;58557;50.982;-3.222;2023-01-31T02:35:14;102096.89;;;4.44;71.56
70916;BME280;58557;50.982;-3.222;2023-01-31T02:37:39;102099.25;;;3.51;72.64
70916;BME280;58557;50.982;-3.222;2023-01-31T02:40:06;102094.01;;;4.59;72.03
70916;BME280;58557;50.982;-3.222;2023-01-31T02:42:31;102098.04;;;5.22;67.09
70916;BME280;58557;50.982;-3.222;2023-01-31T02:44:51;102099.60;;;4.59;69.24
70916;BME280;58557;50.982;-3.222;2023-01-31T02:47:23;102100.59;;;5.62;65.65
70916;BME280;58557;50.982;-3.222;2023-01-31T02:49:44;102093.20;;;5.85;65.45
70916;BME280;58557;50.982;-3.222;2023-01-31T02:52:14;102087.24;;;5.62;64.82
70916;BME280;58557;50.982;-3.222;2023-01-31T02:54:30;102083.40;;;5.44;65.90
70916;BME280;58557;50.982;-3.222;2023-01-31T02:56:56;102086.50;;;5.35;64.88
70916;BME280;58557;50.982;-3.222;2023-01-31T02:59:23;102078.12;;;4.76;67.24
70916;BME280;58557;50.982;-3.222;2023-01-31T03:01:49;102074.87;;;5.69;63.81
70916;BME280;58557;50.982;-3.222;2023-01-31T03:04:12;102067.68;;;5.72;64.98
70916;BME280;58557;50.982;-3.222;2023-01-31T03:06:47;102063.31;;;5.51;64.98
70916;BME280;58557;50.982;-3.222;2023-01-31T03:09:06;102060.75;;;5.87;62.83
70916;BME280;58557;50.982;-3.222;2023-01-31T03:11:34;102075.55;;;4.77;68.00
70916;BME280;58557;50.982;-3.222;2023-01-31T03:13:59;102078.35;;;4.74;68.55
70916;BME280;58557;50.982;-3.222;2023-01-31T03:16:24;102073.85;;;5.70;65.49
70916;BME280;58557;50.982;-3.222;2023-01-31T03:18:47;102077.94;;;4.82;69.15
70916;BME280;58557;50.982;-3.222;2023-01-31T03:21:11;102077.02;;;4.34;69.78
70916;BME280;58557;50.982;-3.222;2023-01-31T03:23:34;102079.87;;;4.06;70.10
70916;BME280;58557;50.982;-3.222;2023-01-31T03:26:01;102075.72;;;4.93;67.17
70916;BME280;58557;50.982;-3.222;2023-01-31T03:28:28;102071.66;;;5.74;66.05
70916;BME280;58557;50.982;-3.222;2023-01-31T03:30:53;102068.29;;;5.66;64.39
70916;BME280;58557;50.982;-3.222;2023-01-31T03:33:18;102063.82;;;4.73;66.58
70916;BME280;58557;50.982;-3.222;2023-01-31T03:35:46;102057.57;;;5.41;65.17
70916;BME280;58557;50.982;-3.222;2023-01-31T03:38:12;102055.19;;;5.75;63.23
70916;BME280;58557;50.982;-3.222;2023-01-31T03:40:38;102054.08;;;5.27;63.21
70916;BME280;58557;50.982;-3.222;2023-01-31T03:43:01;102052.20;;;6.13;62.52
70916;BME280;58557;50.982;-3.222;2023-01-31T03:45:27;102054.93;;;6.77;60.94
70916;BME280;58557;50.982;-3.222;2023-01-31T03:47:49;102061.44;;;7.29;56.87
70916;BME280;58557;50.982;-3.222;2023-01-31T03:50:17;102056.33;;;5.81;62.57
70916;BME280;58557;50.982;-3.222;2023-01-31T03:52:43;102054.67;;;6.08;63.26
70916;BME280;58557;50.982;-3.222;2023-01-31T03:55:09;102047.31;;;6.62;61.74
70916;BME280;58557;50.982;-3.222;2023-01-31T03:57:33;102044.97;;;6.49;60.33
70916;BME280;58557;50.982;-3.222;2023-01-31T03:59:57;102044.38;;;6.59;59.10
70916;BME280;58557;50.982;-3.222;2023-01-31T04:02:24;102047.07;;;5.15;63.70
70916;BME280;58557;50.982;-3.222;2023-01-31T04:04:49;102042.97;;;6.32;60.98
70916;BME280;58557;50.982;-3.222;2023-01-31T04:07:12;102047.78;;;8.03;56.33
70916;BME280;58557;50.982;-3.222;2023-01-31T04:09:37;102048.79;;;7.87;55.94
70916;BME280;58557;50.982;-3.222;2023-01-31T04:12:03;102051.04;;;7.73;57.94
70916;BME280;58557;50.982;-3.222;2023-01-31T04:14:28;102057.35;;;7.00;58.53
70916;BME280;58557;50.982;-3.222;2023-01-31T04:16:53;102053.87;;;6.91;60.21
70916;BME280;58557;50.982;-3.222;2023-01-31T04:19:18;102050.79;;;6.75;59.43
70916;BME280;58557;50.982;-3.222;2023-01-31T04:21:43;102055.14;;;6.95;58.64
70916;BME280;58557;50.982;-3.222;2023-01-31T04:24:09;102062.22;;;6.52;59.94
70916;BME280;58557;50.982;-3.222;2023-01-31T04:26:34;102058.64;;;6.87;61.13
70916;BME280;58557;50.982;-3.222;2023-01-31T04:28:59;102048.74;;;8.44;55.45
70916;BME280;58557;50.982;-3.222;2023-01-31T04:31:25;102047.02;;;8.83;54.94
70916;BME280;58557;50.982;-3.222;2023-01-31T04:33:50;102055.32;;;9.03;52.64
70916;BME280;58557;50.982;-3.222;2023-01-31T04:36:15;102052.59;;;8.70;54.58
70916;BME280;58557;50.982;-3.222;2023-01-31T04:38:40;102052.95;;;8.35;54.84
70916;BME280;58557;50.982;-3.222;2023-01-31T04:41:05;102054.56;;;8.42;54.32
70916;BME280;58557;50.982;-3.222;2023-01-31T04:43:31;102052.39;;;8.13;56.44
70916;BME280;58557;50.982;-3.222;2023-01-31T04:45:56;102046.85;;;8.65;54.09
70916;BME280;58557;50.982;-3.222;2023-01-31T04:48:21;102043.66;;;9.46;52.81
70916;BME280;58557;50.982;-3.222;2023-01-31T04:50:46;102044.04;;;9.64;52.59
70916;BME280;58557;50.982;-3.222;2023-01-31T04:53:11;102036.98;;;9.06;53.36
70916;BME280;58557;50.982;-3.222;2023-01-31T04:55:36;102036.04;;;8.67;54.92
70916;BME280;58557;50.982;-3.222;2023-01-31T04:58:02;102042.72;;;8.85;55.53
70916;BME280;58557;50.982;-3.222;2023-01-31T05:00:27;102043.86;;;9.09;55.56
70916;BME280;58557;50.982;-3.222;2023-01-31T05:02:52;102035.09;;;8.92;55.02
70916;BME280;58557;50.982;-3.222;2023-01-31T05:05:17;102038.50;;;8.21;57.00
70916;BME280;58557;50.982;-3.222;2023-01-31T05:07:43;102028.71;;;8.23;57.97
70916;BME280;58557;50.982;-3.222;2023-01-31T05:10:09;102034.86;;;7.85;59.18
70916;BME280;58557;50.982;-3.222;2023-01-31T05:12:34;102035.54;;;6.75;63.31
70916;BME280;58557;50.982;-3.222;2023-01-31T05:14:58;102033.39;;;6.91;64.46
70916;BME280;58557;50.982;-3.222;2023-01-31T05:17:24;102029.22;;;8.50;60.15
70916;BME280;58557;50.982;-3.222;2023-01-31T05:19:48;102025.91;;;8.16;60.42
70916;BME280;58557;50.982;-3.222;2023-01-31T05:22:14;102026.06;;;8.80;59.30
70916;BME280;58557;50.982;-3.222;2023-01-31T05:24:39;102024.66;;;8.23;61.46
70916;BME280;58557;50.982;-3.222;2023-01-31T05:27:04;102026.48;;;9.34;57.80
70916;BME280;58557;50.982;-3.222;2023-01-31T05:29:31;102018.01;;;8.39;59.51
70916;BME280;58557;50.982;-3.222;2023-01-31T05:31:56;102015.60;;;8.49;60.90
70916;BME280;58557;50.982;-3.222;2023-01-31T05:34:20;102007.18;;;8.18;61.79
70916;BME280;58557;50.982;-3.222;2023-01-31T05:36:45;102005.90;;;8.43;60.59
70916;BME280;58557;50.982;-3.222;2023-01-31T05:39:10;102000.55;;;8.71;60.60
70916;BME280;58557;50.982;-3.222;2023-01-31T05:41:35;101996.09;;;8.52;60.04
70916;BME280;58557;50.982;-3.222;2023-01-31T05:44:00;101992.15;;;8.25;60.36
70916;BME280;58557;50.982;-3.222;2023-01-31T05:46:26;101984.98;;;8.42;59.54
70916;BME280;58557;50.982;-3.222;2023-01-31T05:48:51;101982.86;;;8.22;61.05
70916;BME280;58557;50.982;-3.222;2023-01-31T05:51:17;101984.94;;;8.98;59.26
70916;BME280;58557;50.982;-3.222;2023-01-31T05:53:42;101974.55;;;8.25;61.96
70916;BME280;58557;50.982;-3.222;2023-01-31T05:56:08;101968.28;;;9.68;58.58
70916;BME280;58557;50.982;-3.222;2023-01-31T05:58:33;101975.67;;;8.65;60.89
70916;BME280;58557;50.982;-3.222;2023-01-31T06:00:58;101968.05;;;8.48;61.54
70916;BME280;58557;50.982;-3.222;2023-01-31T06:03:24;101962.31;;;8.19;62.77
70916;BME280;58557;50.982;-3.222;2023-01-31T06:05:49;101960.37;;;9.02;61.49
70916;BME280;58557;50.982;-3.222;2023-01-31T06:08:15;101959.42;;;8.96;61.06
70916;BME280;58557;50.982;-3.222;2023-01-31T06:10:40;101956.62;;;7.72;64.20
70916;BME280;58557;50.982;-3.222;2023-01-31T06:13:05;101952.50;;;8.52;63.31
70916;BME280;58557;50.982;-3.222;2023-01-31T06:15:31;101949.52;;;9.07;62.38
70916;BME280;58557;50.982;-3.222;2023-01-31T06:17:57;101945.76;;;8.24;62.88
70916;BME280;58557;50.982;-3.222;2023-01-31T06:20:22;101956.02;;;7.12;67.39
70916;BME280;58557;50.982;-3.222;2023-01-31T06:22:48;101955.52;;;6.83;71.11
70916;BME280;58557;50.982;-3.222;2023-01-31T06:25:13;101951.12;;;7.42;69.90
70916;BME280;58557;50.982;-3.222;2023-01-31T06:27:39;101947.48;;;6.91;71.23
70916;BME280;58557;50.982;-3.222;2023-01-31T06:30:05;101948.81;;;7.34;70.59
70916;BME280;58557;50.982;-3.222;2023-01-31T06:32:29;101952.56;;;6.63;74.29
70916;BME280;58557;50.982;-3.222;2023-01-31T06:34:54;101953.57;;;7.43;70.78
70916;BME280;58557;50.982;-3.222;2023-01-31T06:37:20;101957.42;;;7.24;71.24
70916;BME280;58557;50.982;-3.222;2023-01-31T06:39:45;101950.11;;;6.88;73.69
70916;BME280;58557;50.982;-3.222;2023-01-31T06:42:11;101937.38;;;6.50;74.24
70916;BME280;58557;50.982;-3.222;2023-01-31T06:44:36;101937.32;;;7.91;70.01
70916;BME280;58557;50.982;-3.222;2023-01-31T06:47:01;101954.53;;;6.46;75.46
70916;BME280;58557;50.982;-3.222;2023-01-31T06:49:26;101946.34;;;6.50;75.86
70916;BME280;58557;50.982;-3.222;2023-01-31T06:51:52;101947.11;;;5.97;78.08
70916;BME280;58557;50.982;-3.222;2023-01-31T06:54:17;101948.69;;;6.55;75.26
70916;BME280;58557;50.982;-3.222;2023-01-31T06:56:43;101945.38;;;7.56;73.74
70916;BME280;58557;50.982;-3.222;2023-01-31T06:59:09;101944.53;;;8.52;71.58
70916;BME280;58557;50.982;-3.222;2023-01-31T07:01:34;101948.69;;;8.23;71.62
70916;BME280;58557;50.982;-3.222;2023-01-31T07:04:00;101946.74;;;7.66;73.26
70916;BME280;58557;50.982;-3.222;2023-01-31T07:06:25;101945.74;;;7.72;73.12
70916;BME280;58557;50.982;-3.222;2023-01-31T07:08:52;101944.17;;;7.80;72.75
70916;BME280;58557;50.982;-3.222;2023-01-31T07:11:16;101951.77;;;6.77;76.52
70916;BME280;58557;50.982;-3.222;2023-01-31T07:13:42;101948.04;;;7.48;75.34
70916;BME280;58557;50.982;-3.222;2023-01-31T07:16:08;101944.19;;;7.91;73.11
70916;BME280;58557;50.982;-3.222;2023-01-31T07:18:33;101936.90;;;8.24;72.34
70916;BME280;58557;50.982;-3.222;2023-01-31T07:20:59;101940.92;;;8.93;70.95
70916;BME280;58557;50.982;-3.222;2023-01-31T07:23:24;101944.55;;;7.07;74.74
70916;BME280;58557;50.982;-3.222;2023-01-31T07:25:49;101945.01;;;8.52;69.79
70916;BME280;58557;50.982;-3.222;2023-01-31T07:28:15;101949.24;;;8.23;70.94
70916;BME280;58557;50.982;-3.222;2023-01-31T07:30:40;101951.47;;;8.09;71.10
70916;BME280;58557;50.982;-3.222;2023-01-31T07:33:06;101945.31;;;8.25;71.85
70916;BME280;58557;50.982;-3.222;2023-01-31T07:35:31;101950.63;;;7.01;76.32
70916;BME280;58557;50.982;-3.222;2023-01-31T07:37:57;101955.36;;;8.05;74.31
70916;BME280;58557;50.982;-3.222;2023-01-31T07:40:22;101954.31;;;8.05;71.50
70916;BME280;58557;50.982;-3.222;2023-01-31T07:42:47;101962.96;;;8.36;72.13
70916;BME280;58557;50.982;-3.222;2023-01-31T07:45:14;101959.45;;;8.11;72.61
70916;BME280;58557;50.982;-3.222;2023-01-31T07:47:38;101955.00;;;8.32;73.09
70916;BME280;58557;50.982;-3.222;2023-01-31T07:50:04;101955.47;;;7.20;77.64
70916;BME280;58557;50.982;-3.222;2023-01-31T07:52:30;101962.35;;;6.92;81.47
70916;BME280;58557;50.982;-3.222;2023-01-31T07:54:54;101962.94;;;8.19;76.93
70916;BME280;58557;50.982;-3.222;2023-01-31T07:57:20;101966.39;;;8.73;74.05
70916;BME280;58557;50.982;-3.222;2023-01-31T07:59:45;101970.70;;;9.22;70.68
70916;BME280;58557;50.982;-3.222;2023-01-31T08:02:12;101972.57;;;9.11;71.35
70916;BME280;58557;50.982;-3.222;2023-01-31T08:04:36;101977.69;;;8.52;73.43
70916;BME280;58557;50.982;-3.222;2023-01-31T08:07:02;101976.92;;;8.63;73.83
70916;BME280;58557;50.982;-3.222;2023-01-31T08:09:27;101972.36;;;9.51;70.18
70916;BME280;58557;50.982;-3.222;2023-01-31T08:11:53;101978.84;;;9.41;72.38
70916;BME280;58557;50.982;-3.222;2023-01-31T08:14:18;101978.48;;;9.44;72.30
70916;BME280;58557;50.982;-3.222;2023-01-31T08:16:43;101975.87;;;9.48;72.59
70916;BME280;58557;50.982;-3.222;2023-01-31T08:19:09;101971.02;;;9.10;71.84
70916;BME280;58557;50.982;-3.222;2023-01-31T08:21:34;101964.66;;;8.45;74.78
70916;BME280;58557;50.982;-3.222;2023-01-31T08:23:59;101958.35;;;8.90;75.89
70916;BME280;58557;50.982;-3.222;2023-01-31T08:26:25;101951.71;;;7.88;79.06
70916;BME280;58557;50.982;-3.222;2023-01-31T08:28:51;101950.08;;;7.93;79.58
70916;BME280;58557;50.982;-3.222;2023-01-31T08:31:18;101959.09;;;7.33;83.69
70916;BME280;58557;50.982;-3.222;2023-01-31T08:33:41;101953.38;;;7.88;80.73
70916;BME280;58557;50.982;-3.222;2023-01-31T08:36:08;101946.38;;;8.43;79.57
70916;BME280;58557;50.982;-3.222;2023-01-31T08:38:33;101944.75;;;8.84;78.80
70916;BME280;58557;50.982;-3.222;2023-01-31T08:40:58;101945.95;;;8.26;79.57
70916;BME280;58557;50.982;-3.222;2023-01-31T08:43:24;101947.09;;;7.34;83.45
70916;BME280;58557;50.982;-3.222;2023-01-31T08:45:50;101952.43;;;8.69;79.93
70916;BME280;58557;50.982;-3.222;2023-01-31T08:48:15;101951.64;;;7.87;82.21
70916;BME280;58557;50.982;-3.222;2023-01-31T08:50:41;101956.20;;;8.92;79.81
70916;BME280;58557;50.982;-3.222;2023-01-31T08:53:06;101958.33;;;8.86;80.32
70916;BME280;58557;50.982;-3.222;2023-01-31T08:55:36;101962.04;;;8.66;79.96
70916;BME280;58557;50.982;-3.222;2023-01-31T08:58:02;101956.60;;;9.95;75.93
70916;BME280;58557;50.982;-3.222;2023-01-31T09:00:23;101962.72;;;9.66;75.62
70916;BME280;58557;50.982;-3.222;2023-01-31T09:02:52;101969.96;;;8.46;81.05
70916;BME280;58557;50.982;-3.222;2023-01-31T09:05:13;101971.12;;;9.45;78.61
70916;BME280;58557;50.982;-3.222;2023-01-31T09:07:38;101977.16;;;7.88;85.97
70916;BME280;58557;50.982;-3.222;2023-01-31T09:10:05;101976.23;;;9.44;80.13
70916;BME280;58557;50.982;-3.222;2023-01-31T09:12:30;101970.86;;;9.29;78.43
70916;BME280;58557;50.982;-3.222;2023-01-31T09:14:55;101965.96;;;9.13;78.99
70916;BME280;58557;50.982;-3.222;2023-01-31T09:17:21;101964.23;;;10.32;76.58
70916;BME280;58557;50.982;-3.222;2023-01-31T09:19:52;101967.32;;;9.31;78.45
70916;BME280;58557;50.982;-3.222;2023-01-31T09:22:13;101966.20;;;9.86;76.64
70916;BME280;58557;50.982;-3.222;2023-01-31T09:24:42;101963.39;;;9.60;76.12
70916;BME280;58557;50.982;-3.222;2023-01-31T09:27:03;101967.64;;;9.77;77.39
70916;BME280;58557;50.982;-3.222;2023-01-31T09:29:29;101970.10;;;9.39;77.88
70916;BME280;58557;50.982;-3.222;2023-01-31T09:31:54;101973.69;;;10.19;74.55
70916;BME280;58557;50.982;-3.222;2023-01-31T09:34:20;101976.12;;;8.91;78.81
70916;BME280;58557;50.982;-3.222;2023-01-31T09:36:47;101975.28;;;9.46;79.89
70916;BME280;58557;50.982;-3.222;2023-01-31T09:39:17;101975.56;;;9.44;78.62
70916;BME280;58557;50.982;-3.222;2023-01-31T09:41:42;101972.22;;;8.96;80.93
70916;BME280;58557;50.982;-3.222;2023-01-31T09:44:10;101976.56;;;9.02;80.41
70916;BME280;58557;50.982;-3.222;2023-01-31T09:46:36;101973.87;;;9.92;76.93
70916;BME280;58557;50.982;-3.222;2023-01-31T09:48:57;101975.56;;;9.11;77.97
70916;BME280;58557;50.982;-3.222;2023-01-31T09:51:26;101979.06;;;9.51;77.87
70916;BME280;58557;50.982;-3.222;2023-01-31T09:53:55;101982.74;;;8.10;83.47
70916;BME280;58557;50.982;-3.222;2023-01-31T09:56:21;101975.21;;;8.14;83.04
70916;BME280;58557;50.982;-3.222;2023-01-31T09:58:53;101981.90;;;9.61;79.96
70916;BME280;58557;50.982;-3.222;2023-01-31T10:01:16;101989.66;;;9.64;80.19
70916;BME280;58557;50.982;-3.222;2023-01-31T10:03:45;101988.63;;;9.07;79.40
70916;BME280;58557;50.982;-3.222;2023-01-31T10:05:59;101988.73;;;9.41;80.18
70916;BME280;58557;50.982;-3.222;2023-01-31T10:08:33;101989.90;;;9.48;77.73
70916;BME280;58557;50.982;-3.222;2023-01-31T10:10:53;101989.28;;;9.96;75.77
70916;BME280;58557;50.982;-3.222;2023-01-31T10:13:20;101987.21;;;8.66;83.03
70916;BME280;58557;50.982;-3.222;2023-01-31T10:15:43;101988.55;;;9.19;83.41
70916;BME280;58557;50.982;-3.222;2023-01-31T10:18:11;101996.13;;;9.30;84.63
70916;BME280;58557;50.982;-3.222;2023-01-31T10:20:34;101988.91;;;8.54;86.44
70916;BME280;58557;50.982;-3.222;2023-01-31T10:23:00;101990.76;;;9.17;85.99
70916;BME280;58557;50.982;-3.222;2023-01-31T10:25:27;101980.90;;;7.88;93.14
70916;BME280;58557;50.982;-3.222;2023-01-31T10:27:48;101987.91;;;9.92;87.21
70916;BME280;58557;50.982;-3.222;2023-01-31T10:30:16;101993.49;;;10.74;79.75
70916;BME280;58557;50.982;-3.222;2023-01-31T10:32:44;101991.16;;;9.41;84.93
70916;BME280;58557;50.982;-3.222;2023-01-31T10:35:11;101993.80;;;9.97;83.09
70916;BME280;58557;50.982;-3.222;2023-01-31T10:37:34;101999.14;;;9.80;83.31
70916;BME280;58557;50.982;-3.222;2023-01-31T10:39:56;102000.98;;;10.59;77.91
70916;BME280;58557;50.982;-3.222;2023-01-31T10:42:25;101995.84;;;10.38;78.93
70916;BME280;58557;50.982;-3.222;2023-01-31T10:44:51;101996.96;;;9.62;78.65
70916;BME280;58557;50.982;-3.222;2023-01-31T10:47:13;102002.04;;;10.08;79.92
70916;BME280;58557;50.982;-3.222;2023-01-31T10:49:37;102008.22;;;9.65;81.10
70916;BME280;58557;50.982;-3.222;2023-01-31T10:52:16;102016.37;;;9.34;82.47
70916;BME280;58557;50.982;-3.222;2023-01-31T10:54:39;102013.46;;;11.06;76.28
70916;BME280;58557;50.982;-3.222;2023-01-31T10:56:59;102019.34;;;9.92;77.30
70916;BME280;58557;50.982;-3.222;2023-01-31T10:59:25;102020.51;;;11.03;73.99
70916;BME280;58557;50.982;-3.222;2023-01-31T11:01:45;102019.81;;;9.63;79.64
70916;BME280;58557;50.982;-3.222;2023-01-31T11:04:22;102023.84;;;10.16;78.81
70916;BME280;58557;50.982;-3.222;2023-01-31T11:06:37;102025.35;;;9.53;80.55
70916;BME280;58557;50.982;-3.222;2023-01-31T11:09:03;102027.65;;;8.98;84.84
70916;BME280;58557;50.982;-3.222;2023-01-31T11:11:29;102024.05;;;9.85;83.49
70916;BME280;58557;50.982;-3.222;2023-01-31T11:13:57;102026.03;;;10.52;80.50
70916;BME280;58557;50.982;-3.222;2023-01-31T11:16:22;102027.76;;;9.66;80.92
70916;BME280;58557;50.982;-3.222;2023-01-31T11:18:52;102027.75;;;9.99;78.50
70916;BME280;58557;50.982;-3.222;2023-01-31T11:21:18;102024.52;;;10.38;76.49
70916;BME280;58557;50.982;-3.222;2023-01-31T11:23:37;102030.08;;;10.81;75.18
70916;BME280;58557;50.982;-3.222;2023-01-31T11:26:08;102039.08;;;10.34;74.67
70916;BME280;58557;50.982;-3.222;2023-01-31T11:28:35;102038.34;;;10.03;74.21
70916;BME280;58557;50.982;-3.222;2023-01-31T11:30:55;102039.40;;;9.73;73.13
70916;BME280;58557;50.982;-3.222;2023-01-31T11:33:37;102040.17;;;10.72;68.12
70916;BME280;58557;50.982;-3.222;2023-01-31T11:35:51;102041.57;;;10.85;67.76
70916;BME280;58557;50.982;-3.222;2023-01-31T11:38:21;102039.38;;;11.07;65.73
70916;BME280;58557;50.982;-3.222;2023-01-31T11:40:39;102045.05;;;11.83;63.10
70916;BME280;58557;50.982;-3.222;2023-01-31T11:45:36;102044.92;;;11.56;61.70
70916;BME280;58557;50.982;-3.222;2023-01-31T11:48:05;102040.70;;;12.16;59.73
70916;BME280;58557;50.982;-3.222;2023-01-31T11:50:23;102042.38;;;11.61;59.31
70916;BME280;58557;50.982;-3.222;2023-01-31T11:52:56;102034.62;;;9.91;63.04
70916;BME280;58557;50.982;-3.222;2023-01-31T11:55:17;102030.08;;;11.01;60.95
70916;BME280;58557;50.982;-3.222;2023-01-31T11:57:38;102034.84;;;11.51;58.34
70916;BME280;58557;50.982;-3.222;2023-01-31T12:00:07;102031.90;;;10.32;58.76
70916;BME280;58557;50.982;-3.222;2023-01-31T12:02:34;102028.65;;;10.42;59.69
70916;BME280;58557;50.982;-3.222;2023-01-31T12:04:55;102024.51;;;9.59;62.43
70916;BME280;58557;50.982;-3.222;2023-01-31T12:07:27;102023.18;;;9.45;63.72
70916;BME280;58557;50.982;-3.222;2023-01-31T12:09:47;102027.57;;;11.14;58.62
70916;BME280;58557;50.982;-3.222;2023-01-31T12:12:26;102033.20;;;11.09;57.77
70916;BME280;58557;50.982;-3.222;2023-01-31T12:14:39;102034.14;;;10.99;58.50
70916;BME280;58557;50.982;-3.222;2023-01-31T12:17:04;102041.77;;;10.95;60.17
70916;BME280;58557;50.982;-3.222;2023-01-31T12:19:45;102045.20;;;11.60;58.04
70916;BME280;58557;50.982;-3.222;2023-01-31T12:22:01;102042.84;;;11.62;56.20
70916;BME280;58557;50.982;-3.222;2023-01-31T12:24:33;102047.09;;;11.79;55.08
70916;BME280;58557;50.982;-3.222;2023-01-31T12:26:56;102041.29;;;10.10;59.22
70916;BME280;58557;50.982;-3.222;2023-01-31T12:31:57;102043.59;;;10.52;59.33
70916;BME280;58557;50.982;-3.222;2023-01-31T12:36:49;102042.26;;;11.36;56.47
70916;BME280;58557;50.982;-3.222;2023-01-31T12:39:02;102037.88;;;11.60;55.47
70916;BME280;58557;50.982;-3.222;2023-01-31T12:41:28;102036.59;;;10.65;57.08
70916;BME280;58557;50.982;-3.222;2023-01-31T12:43:58;102038.71;;;10.09;59.53
70916;BME280;58557;50.982;-3.222;2023-01-31T12:46:16;102042.43;;;11.51;55.86
70916;BME280;58557;50.982;-3.222;2023-01-31T12:51:14;102038.00;;;11.12;55.18
70916;BME280;58557;50.982;-3.222;2023-01-31T12:56:12;102035.74;;;10.70;55.31